Hlavní strana
METAR-TAF:

METAR-TAF

Letiště :

Hammerfest, Norsko

zeměpisná šířka: 70-40N, zeměpisná délka: 023-40E, výška: 8 m

Aktuální stav počasí

Zpráva byla vytvořena před 43 minutami, v 01:50 UTC
Jihozápadní vítr 12 kt
Teplota 6°C
Vlhkost vzduchu 93%
Tlak 1006 hPa
Viditelnost 10 km a více
Oblačno až skoro zataženo ve výšce 1800 ft

METAR: ENHF 140150Z 23012KT 9999 BKN018 06/05 Q1006 RMK WIND 1254FT 25015KT

Čas: 03:33 (02:33 UTC)

Předpověď počasí

Zpráva byla vytvořena před 3 hodinami a 33 minutami, v 23:00 UTC
Předpověď platná od 14 v 00 UTC do 14 v 09 UTC
Jihojihozápadní vítr 8 kt
Viditelnost 10 km a více
Skoro jasno ve výšce 800 ft
Oblačno až skoro zataženo ve výšce 2000 ft
slabý déšť

TAF: ENHF 132300Z 1400/1409 20008KT 9999 -RA FEW008 BKN020

Stav a předpovědi počasí z více než 4 000 letišť (zprávy METAR a TAF).

Červené a žluté tečky na mapě představují dostupné meteorologické stanice.

Když kurzor umístíte na tečku, zobrazí se název stanice.

Pak kliknutím zobrazíte stav a předpověď počasí.

Chcete-li změnit mapu, kliknutím na zelené tlačítko se znaménkem +mapu přiblížíte, kliknutím na zelené tlačítko se znaménkem – mapu oddálíte a kliknutím na zelené šipky přejdete na sousední mapy.


METAR-TAF: